Time;durP1;ratioP1;P1;durP2;ratioP2;P2;SDS_P1;SDS_P2;PMS_P1;PMS_P2;Temp;Humidity;BMP_temperature;BMP_pressure;BME280_temperature;BME280_humidity;BME280_pressure;Samples;Min_cycle;Max_cycle;Signal;HPM_P1;HPM_P2
2021/05/07 00:04:31;;;;;;;4.40;1.10;;;;;;;;;;10482662;28;20712;-69
2021/05/07 00:09:33;;;;;;;2.10;0.53;;;;;;;;;;10482082;28;20240;-69
2021/05/07 00:14:34;;;;;;;1.73;0.83;;;;;;;;;;10483479;28;21190;-69
2021/05/07 00:19:37;;;;;;;1.27;0.70;;;;;;;;;;10489255;28;20349;-68
2021/05/07 00:24:39;;;;;;;1.93;0.50;;;;;;;;;;10487565;28;20215;-69
2021/05/07 00:29:40;;;;;;;0.97;0.70;;;;;;;;;;10478718;28;20197;-68
2021/05/07 00:34:43;;;;;;;1.17;0.63;;;;;;;;;;10481262;28;20650;-71
2021/05/07 00:39:45;;;;;;;0.40;0.40;;;;;;;;;;10495215;28;20224;-70
2021/05/07 00:44:46;;;;;;;1.07;0.70;;;;;;;;;;10501824;28;20213;-70
2021/05/07 00:49:49;;;;;;;0.60;0.40;;;;;;;;;;10492753;28;20189;-70
2021/05/07 00:54:51;;;;;;;0.30;0.30;;;;;;;;;;10494859;28;20216;-70
2021/05/07 00:59:53;;;;;;;0.43;0.40;;;;;;;;;;10489025;28;20216;-70
2021/05/07 01:04:55;;;;;;;0.40;0.40;;;;;;;;;;10485591;28;20654;-69
2021/05/07 01:09:57;;;;;;;2.20;0.50;;;;;;;;;;10477834;28;20522;-70
2021/05/07 01:15:04;;;;;;;0.67;0.30;;;;;;;;;;10477648;28;20307;-70
2021/05/07 01:20:08;;;;;;;0.40;0.27;;;;;;;;;;10487725;28;20587;-70
2021/05/07 01:25:10;;;;;;;1.03;0.40;;;;;;;;;;10498335;28;20285;-70
2021/05/07 01:30:14;;;;;;;1.77;0.37;;;;;;;;;;10491105;28;20254;-70
2021/05/07 01:35:18;;;;;;;1.80;0.57;;;;;;;;;;10493158;28;20219;-69
2021/05/07 01:40:21;;;;;;;0.83;0.30;;;;;;;;;;10482807;28;20231;-71
2021/05/07 01:45:23;;;;;;;0.67;0.50;;;;;;;;;;10463920;28;20212;-70
2021/05/07 01:50:27;;;;;;;1.07;0.50;;;;;;;;;;10462606;28;20754;-69
2021/05/07 01:55:29;;;;;;;2.00;0.57;;;;;;;;;;10471772;28;20223;-71
2021/05/07 02:00:31;;;;;;;0.27;0.27;;;;;;;;;;10488967;28;20218;-69
2021/05/07 02:05:34;;;;;;;1.37;0.40;;;;;;;;;;10489234;28;20235;-70
2021/05/07 02:10:35;;;;;;;0.63;0.50;;;;;;;;;;10494151;28;20215;-69
2021/05/07 02:15:37;;;;;;;1.67;0.60;;;;;;;;;;10492429;28;20224;-70
2021/05/07 02:20:40;;;;;;;0.90;0.60;;;;;;;;;;10496317;28;20228;-70
2021/05/07 02:25:42;;;;;;;2.03;0.43;;;;;;;;;;10490764;28;20212;-69
2021/05/07 02:30:43;;;;;;;1.33;0.63;;;;;;;;;;10478951;28;20188;-69
2021/05/07 02:35:46;;;;;;;4.33;0.70;;;;;;;;;;10490132;28;20625;-71
2021/05/07 02:40:47;;;;;;;0.87;0.63;;;;;;;;;;10490824;28;20320;-68
2021/05/07 02:45:49;;;;;;;1.67;0.70;;;;;;;;;;10485022;28;20208;-69
2021/05/07 02:50:52;;;;;;;3.63;1.40;;;;;;;;;;10495601;28;20216;-70
2021/05/07 02:55:53;;;;;;;1.53;0.60;;;;;;;;;;10488956;28;20269;-68
2021/05/07 03:00:55;;;;;;;1.50;0.77;;;;;;;;;;10495708;28;20702;-70
2021/05/07 03:05:58;;;;;;;0.20;0.20;;;;;;;;;;10480215;28;20301;-68
2021/05/07 03:10:59;;;;;;;1.63;0.80;;;;;;;;;;10486475;28;20537;-71
2021/05/07 03:16:01;;;;;;;1.10;0.70;;;;;;;;;;10490441;28;20638;-69
2021/05/07 03:21:05;;;;;;;0.50;0.50;;;;;;;;;;10495257;28;20261;-70
2021/05/07 03:26:06;;;;;;;0.67;0.60;;;;;;;;;;10497051;28;20670;-69
2021/05/07 03:31:08;;;;;;;1.90;0.70;;;;;;;;;;10493103;28;20563;-68
2021/05/07 03:36:10;;;;;;;2.00;0.60;;;;;;;;;;10498767;28;20235;-69
2021/05/07 03:41:12;;;;;;;2.73;1.00;;;;;;;;;;10491999;28;20223;-69
2021/05/07 03:46:13;;;;;;;2.47;0.80;;;;;;;;;;10481989;28;20231;-68
2021/05/07 03:51:22;;;;;;;2.57;0.80;;;;;;;;;;10486986;28;20208;-68
2021/05/07 03:56:23;;;;;;;2.83;1.23;;;;;;;;;;10487874;28;20293;-69
2021/05/07 04:01:25;;;;;;;3.53;0.90;;;;;;;;;;10486919;28;20314;-70
2021/05/07 04:06:27;;;;;;;2.10;0.83;;;;;;;;;;10488764;28;20299;-70
2021/05/07 04:11:32;;;;;;;1.33;0.50;;;;;;;;;;10483762;28;20219;-70
2021/05/07 04:16:34;;;;;;;2.63;1.03;;;;;;;;;;10484815;28;20224;-70
2021/05/07 04:21:37;;;;;;;1.73;0.80;;;;;;;;;;10476687;28;20216;-70
2021/05/07 04:26:38;;;;;;;3.10;0.90;;;;;;;;;;10476921;28;20209;-69
2021/05/07 04:31:40;;;;;;;2.97;0.70;;;;;;;;;;10492439;28;20196;-69
2021/05/07 04:36:42;;;;;;;2.07;0.90;;;;;;;;;;10489504;28;20222;-70
2021/05/07 04:41:44;;;;;;;2.43;0.87;;;;;;;;;;10486920;28;20220;-71
2021/05/07 04:46:45;;;;;;;3.50;1.10;;;;;;;;;;10486500;28;20609;-69
2021/05/07 04:51:48;;;;;;;2.27;0.87;;;;;;;;;;10479684;28;20199;-69
2021/05/07 04:56:49;;;;;;;2.17;0.90;;;;;;;;;;10493938;28;20232;-70
2021/05/07 05:01:51;;;;;;;2.73;0.93;;;;;;;;;;10491347;28;20239;-69
2021/05/07 05:06:53;;;;;;;1.37;0.80;;;;;;;;;;10490603;28;20307;-69
2021/05/07 05:11:55;;;;;;;1.63;0.77;;;;;;;;;;10480252;28;20200;-69
2021/05/07 05:16:56;;;;;;;0.93;0.60;;;;;;;;;;10489790;28;20292;-70
2021/05/07 05:21:59;;;;;;;1.53;0.60;;;;;;;;;;10476138;28;20280;-70
2021/05/07 05:27:00;;;;;;;3.17;0.70;;;;;;;;;;10479620;28;20331;-68
2021/05/07 05:32:03;;;;;;;2.17;0.73;;;;;;;;;;10486658;28;20312;-68
2021/05/07 05:37:05;;;;;;;2.97;0.97;;;;;;;;;;10488843;28;20651;-71
2021/05/07 05:42:07;;;;;;;1.63;0.67;;;;;;;;;;10488405;28;20687;-67
2021/05/07 05:47:09;;;;;;;3.73;1.00;;;;;;;;;;10489661;28;20291;-67
2021/05/07 05:52:11;;;;;;;4.00;1.30;;;;;;;;;;10486810;28;20732;-69
2021/05/07 05:57:13;;;;;;;2.77;1.00;;;;;;;;;;10482325;28;20235;-68
2021/05/07 06:02:15;;;;;;;3.83;1.10;;;;;;;;;;10483455;28;20238;-67
2021/05/07 06:07:18;;;;;;;2.63;0.40;;;;;;;;;;10482545;28;20783;-68
2021/05/07 06:12:20;;;;;;;0.70;0.50;;;;;;;;;;10469567;28;20212;-67
2021/05/07 06:17:22;;;;;;;2.50;0.50;;;;;;;;;;10466381;28;20217;-68
2021/05/07 06:22:25;;;;;;;2.20;0.73;;;;;;;;;;10473559;28;20690;-69
2021/05/07 06:27:27;;;;;;;1.53;0.73;;;;;;;;;;10478195;28;20317;-70
2021/05/07 06:32:28;;;;;;;1.27;0.80;;;;;;;;;;10477160;28;20296;-69
2021/05/07 06:37:31;;;;;;;1.20;0.63;;;;;;;;;;10489449;28;20280;-71
2021/05/07 06:42:35;;;;;;;1.17;0.60;;;;;;;;;;10485588;28;20322;-70
2021/05/07 06:47:37;;;;;;;2.50;0.80;;;;;;;;;;10483403;28;20195;-69
2021/05/07 06:52:40;;;;;;;2.03;0.80;;;;;;;;;;10479756;28;20208;-70
2021/05/07 06:57:41;;;;;;;1.67;0.80;;;;;;;;;;10467893;28;20664;-70
2021/05/07 07:02:43;;;;;;;1.07;0.47;;;;;;;;;;10466754;28;20362;-69
2021/05/07 07:07:46;;;;;;;1.27;0.60;;;;;;;;;;10470772;28;20216;-71
2021/05/07 07:12:54;;;;;;;1.77;0.50;;;;;;;;;;10462235;28;20216;-69
2021/05/07 07:17:55;;;;;;;0.93;0.57;;;;;;;;;;10468330;28;20215;-70
2021/05/07 07:22:59;;;;;;;0.70;0.30;;;;;;;;;;10471283;28;20745;-70
2021/05/07 07:28:03;;;;;;;0.60;0.40;;;;;;;;;;10471296;28;20664;-68
2021/05/07 07:33:05;;;;;;;1.03;0.40;;;;;;;;;;10460462;28;20631;-68
2021/05/07 07:38:07;;;;;;;1.10;0.40;;;;;;;;;;10492324;28;20262;-69
2021/05/07 07:43:09;;;;;;;1.50;0.47;;;;;;;;;;10461981;28;20252;-68
2021/05/07 07:48:11;;;;;;;1.47;0.60;;;;;;;;;;10456634;28;21911;-69
2021/05/07 07:53:14;;;;;;;4.37;0.70;;;;;;;;;;10454326;28;20282;-68
2021/05/07 07:58:15;;;;;;;4.00;1.27;;;;;;;;;;10454136;28;20250;-68
2021/05/07 08:03:17;;;;;;;3.73;1.40;;;;;;;;;;10466817;28;20216;-68
2021/05/07 08:08:19;;;;;;;2.07;1.20;;;;;;;;;;10464275;28;20662;-68
2021/05/07 08:13:21;;;;;;;2.50;1.13;;;;;;;;;;10472586;28;20228;-68
2021/05/07 08:18:23;;;;;;;1.00;0.53;;;;;;;;;;10464914;28;20230;-68
2021/05/07 08:23:25;;;;;;;2.47;0.70;;;;;;;;;;10460049;28;20220;-68
2021/05/07 08:28:27;;;;;;;0.80;0.27;;;;;;;;;;10473453;28;22734;-68
2021/05/07 08:33:28;;;;;;;0.93;0.50;;;;;;;;;;10489852;28;20286;-68
2021/05/07 08:38:31;;;;;;;0.77;0.57;;;;;;;;;;10483774;28;20236;-68
2021/05/07 08:43:32;;;;;;;1.27;0.50;;;;;;;;;;10466074;28;20266;-68
2021/05/07 08:48:34;;;;;;;2.53;0.50;;;;;;;;;;10471603;28;20293;-67
2021/05/07 08:53:37;;;;;;;1.63;0.50;;;;;;;;;;10462038;28;20664;-69
2021/05/07 08:58:58;;;;;;;1.37;0.70;;;;;;;;;;10465854;28;20595;-68
2021/05/07 09:04:08;;;;;;;0.73;0.40;;;;;;;;;;10473040;28;20212;-68
2021/05/07 09:09:17;;;;;;;0.43;0.40;;;;;;;;;;10472049;28;20648;-68
2021/05/07 09:14:19;;;;;;;0.93;0.40;;;;;;;;;;10438015;28;20220;-69
2021/05/07 09:19:21;;;;;;;1.20;0.57;;;;;;;;;;10436895;28;20221;-68
2021/05/07 09:24:31;;;;;;;0.73;0.53;;;;;;;;;;10433270;28;20216;-68
2021/05/07 09:29:32;;;;;;;1.17;0.67;;;;;;;;;;10432706;28;20564;-68
2021/05/07 09:34:35;;;;;;;0.50;0.40;;;;;;;;;;10437562;28;20224;-68
2021/05/07 09:39:37;;;;;;;1.27;0.57;;;;;;;;;;10445798;28;20219;-68
2021/05/07 09:44:39;;;;;;;2.43;0.50;;;;;;;;;;10434364;28;20247;-69
2021/05/07 09:49:41;;;;;;;1.23;0.53;;;;;;;;;;10434390;28;21005;-67
2021/05/07 09:54:50;;;;;;;2.13;1.20;;;;;;;;;;10432717;28;20220;-68
2021/05/07 09:59:52;;;;;;;0.93;0.57;;;;;;;;;;10435808;28;20517;-68
2021/05/07 10:04:54;;;;;;;0.50;0.50;;;;;;;;;;10435047;28;20690;-67
2021/05/07 10:10:06;;;;;;;1.10;0.70;;;;;;;;;;10429284;28;20204;-69
2021/05/07 10:15:08;;;;;;;1.03;0.70;;;;;;;;;;10436795;28;20235;-68
2021/05/07 10:20:21;;;;;;;0.40;0.40;;;;;;;;;;10476032;28;20371;-69
2021/05/07 10:25:24;;;;;;;2.20;0.93;;;;;;;;;;10517572;27;20216;-68
2021/05/07 10:30:27;;;;;;;1.57;1.00;;;;;;;;;;10482118;28;20532;-68
2021/05/07 10:35:29;;;;;;;1.37;0.70;;;;;;;;;;10482315;28;20236;-70
2021/05/07 10:40:32;;;;;;;0.80;0.80;;;;;;;;;;10487659;28;20219;-68
2021/05/07 10:45:41;;;;;;;1.13;0.80;;;;;;;;;;10480383;28;20216;-68
2021/05/07 10:50:42;;;;;;;0.60;0.60;;;;;;;;;;10488424;28;20281;-68
2021/05/07 10:55:45;;;;;;;1.63;0.83;;;;;;;;;;10483887;28;20218;-70
2021/05/07 11:00:47;;;;;;;1.00;0.80;;;;;;;;;;10489147;28;20330;-68
2021/05/07 11:05:49;;;;;;;1.77;1.03;;;;;;;;;;10480889;28;20310;-67
2021/05/07 11:10:54;;;;;;;1.10;0.97;;;;;;;;;;10481037;28;20268;-67
2021/05/07 11:15:56;;;;;;;1.47;1.10;;;;;;;;;;10472694;28;20304;-69
2021/05/07 11:20:58;;;;;;;2.23;1.30;;;;;;;;;;10437086;28;20221;-70
2021/05/07 11:26:05;;;;;;;2.60;1.30;;;;;;;;;;10434800;28;20234;-68
2021/05/07 11:31:07;;;;;;;2.83;1.67;;;;;;;;;;10426514;28;20223;-69
2021/05/07 11:36:09;;;;;;;3.37;1.90;;;;;;;;;;10442533;28;20708;-69
2021/05/07 11:41:18;;;;;;;3.47;1.77;;;;;;;;;;10467681;28;20686;-68
2021/05/07 11:46:20;;;;;;;5.10;2.47;;;;;;;;;;10478188;28;20212;-67
2021/05/07 11:51:22;;;;;;;3.27;1.87;;;;;;;;;;10483581;28;20200;-67
2021/05/07 11:56:26;;;;;;;4.53;2.10;;;;;;;;;;10470601;28;20284;-68
2021/05/07 12:01:28;;;;;;;1.80;1.23;;;;;;;;;;10491131;28;20691;-67
2021/05/07 12:06:30;;;;;;;7.33;2.80;;;;;;;;;;10480025;28;20289;-68
2021/05/07 12:11:33;;;;;;;4.57;2.67;;;;;;;;;;10481619;28;20223;-68
2021/05/07 12:16:34;;;;;;;4.77;2.63;;;;;;;;;;10461392;28;20320;-68
2021/05/07 12:21:40;;;;;;;3.10;1.93;;;;;;;;;;10434025;28;20216;-68
2021/05/07 12:26:47;;;;;;;4.63;2.50;;;;;;;;;;10442003;28;20727;-68
2021/05/07 12:31:49;;;;;;;4.50;2.50;;;;;;;;;;10472439;28;20217;-68
2021/05/07 12:36:57;;;;;;;5.47;2.50;;;;;;;;;;10453270;28;20200;-67
2021/05/07 12:42:00;;;;;;;5.57;2.57;;;;;;;;;;10453777;28;20490;-68
2021/05/07 12:47:02;;;;;;;3.13;2.00;;;;;;;;;;10433801;28;20243;-68
2021/05/07 12:52:04;;;;;;;4.07;2.03;;;;;;;;;;10458003;28;20196;-68
2021/05/07 12:57:06;;;;;;;4.50;2.20;;;;;;;;;;10514633;28;20204;-66
2021/05/07 13:02:08;;;;;;;2.27;1.03;;;;;;;;;;10447121;28;20346;-68
2021/05/07 13:07:09;;;;;;;3.33;1.60;;;;;;;;;;10477880;28;20296;-69
2021/05/07 13:12:12;;;;;;;2.60;1.57;;;;;;;;;;10472130;28;20254;-69
2021/05/07 13:17:14;;;;;;;2.60;1.23;;;;;;;;;;10444203;28;20284;-68
2021/05/07 13:22:19;;;;;;;3.77;1.60;;;;;;;;;;10459922;28;20676;-69
2021/05/07 13:27:21;;;;;;;2.57;1.67;;;;;;;;;;10469925;28;20216;-68
2021/05/07 13:32:24;;;;;;;3.67;1.70;;;;;;;;;;10472651;28;20218;-67
2021/05/07 13:37:26;;;;;;;2.57;1.50;;;;;;;;;;10482168;28;20188;-68
2021/05/07 13:42:29;;;;;;;5.00;2.20;;;;;;;;;;10481931;28;20235;-68
2021/05/07 13:47:30;;;;;;;3.33;1.90;;;;;;;;;;10479792;28;20314;-68
2021/05/07 13:52:32;;;;;;;3.63;2.13;;;;;;;;;;10455563;28;20610;-68
2021/05/07 13:57:34;;;;;;;4.73;2.10;;;;;;;;;;10451692;28;20688;-68
2021/05/07 14:02:37;;;;;;;5.43;2.70;;;;;;;;;;10446464;28;20245;-68
2021/05/07 14:07:39;;;;;;;3.50;1.87;;;;;;;;;;10478686;28;20192;-68
2021/05/07 14:12:41;;;;;;;3.70;1.83;;;;;;;;;;10494570;28;20222;-68
2021/05/07 14:17:44;;;;;;;3.67;1.60;;;;;;;;;;10493980;28;20196;-67
2021/05/07 14:22:46;;;;;;;2.60;1.50;;;;;;;;;;10473467;28;20215;-70
2021/05/07 14:27:48;;;;;;;5.00;1.70;;;;;;;;;;10480874;28;20192;-71
2021/05/07 14:32:50;;;;;;;4.33;2.03;;;;;;;;;;10483251;28;20307;-69
2021/05/07 14:37:51;;;;;;;4.83;1.90;;;;;;;;;;10491117;28;20582;-72
2021/05/07 14:42:54;;;;;;;5.37;2.03;;;;;;;;;;10490886;28;20259;-71
2021/05/07 14:47:56;;;;;;;5.10;2.33;;;;;;;;;;10491817;28;20296;-72
2021/05/07 14:52:57;;;;;;;4.20;2.10;;;;;;;;;;10489300;28;20251;-73
2021/05/07 14:58:01;;;;;;;3.30;1.83;;;;;;;;;;10492189;28;20204;-70
2021/05/07 15:03:02;;;;;;;4.67;1.77;;;;;;;;;;10489216;28;20216;-70
2021/05/07 15:08:05;;;;;;;4.10;1.97;;;;;;;;;;10484145;28;20742;-71
2021/05/07 15:13:07;;;;;;;4.80;2.20;;;;;;;;;;10488680;28;20235;-72
2021/05/07 15:18:09;;;;;;;2.57;1.43;;;;;;;;;;10483479;28;20231;-71
2021/05/07 15:23:11;;;;;;;2.77;1.60;;;;;;;;;;10485921;28;20318;-71
2021/05/07 15:28:13;;;;;;;5.23;1.60;;;;;;;;;;10488743;28;20232;-71
2021/05/07 15:33:15;;;;;;;4.00;1.40;;;;;;;;;;10491402;28;20213;-70
2021/05/07 15:38:16;;;;;;;3.83;1.30;;;;;;;;;;10468852;28;20714;-70
2021/05/07 15:43:19;;;;;;;2.80;1.50;;;;;;;;;;10477533;28;20254;-71
2021/05/07 15:48:21;;;;;;;5.33;1.57;;;;;;;;;;10490671;28;20278;-71
2021/05/07 15:53:23;;;;;;;1.67;0.93;;;;;;;;;;10491559;28;20243;-71
2021/05/07 15:58:28;;;;;;;2.27;1.23;;;;;;;;;;10492084;28;20199;-71
2021/05/07 16:03:29;;;;;;;2.60;1.47;;;;;;;;;;10487430;28;20311;-72
2021/05/07 16:08:31;;;;;;;3.23;1.63;;;;;;;;;;10491756;28;20201;-73
2021/05/07 16:13:33;;;;;;;2.67;1.60;;;;;;;;;;10483738;28;20213;-71
2021/05/07 16:18:35;;;;;;;3.03;1.40;;;;;;;;;;10493989;28;20216;-72
2021/05/07 16:23:37;;;;;;;4.43;1.80;;;;;;;;;;10483511;28;20311;-72
2021/05/07 16:28:39;;;;;;;3.03;1.70;;;;;;;;;;10482805;28;20287;-73
2021/05/07 16:33:41;;;;;;;3.73;1.80;;;;;;;;;;10473610;28;20200;-72
2021/05/07 16:38:44;;;;;;;3.83;1.80;;;;;;;;;;10488959;28;20215;-73
2021/05/07 16:43:46;;;;;;;1.47;0.83;;;;;;;;;;10479919;28;20318;-73
2021/05/07 16:48:48;;;;;;;3.30;1.70;;;;;;;;;;10490721;28;20267;-73
2021/05/07 16:53:49;;;;;;;3.40;1.80;;;;;;;;;;10491145;28;20289;-72
2021/05/07 16:58:52;;;;;;;4.13;1.73;;;;;;;;;;10474686;28;20192;-72
2021/05/07 17:03:53;;;;;;;5.23;2.00;;;;;;;;;;10482358;28;20295;-72
2021/05/07 17:09:01;;;;;;;5.53;2.40;;;;;;;;;;10484195;28;20200;-71
2021/05/07 17:14:04;;;;;;;3.97;1.90;;;;;;;;;;10489977;28;20243;-71
2021/05/07 17:19:07;;;;;;;3.80;2.00;;;;;;;;;;10488506;28;20192;-71
2021/05/07 17:24:09;;;;;;;5.13;2.20;;;;;;;;;;10490432;28;20230;-70
2021/05/07 17:29:11;;;;;;;4.20;2.00;;;;;;;;;;10481744;28;20208;-72
2021/05/07 17:34:13;;;;;;;3.77;2.00;;;;;;;;;;10491898;28;20215;-71
2021/05/07 17:39:14;;;;;;;3.90;1.97;;;;;;;;;;10495471;28;20381;-71
2021/05/07 17:44:17;;;;;;;3.50;2.00;;;;;;;;;;10487322;28;20579;-72
2021/05/07 17:49:19;;;;;;;5.00;2.00;;;;;;;;;;10480385;28;20200;-71
2021/05/07 17:54:21;;;;;;;3.83;1.97;;;;;;;;;;10488381;28;20286;-70
2021/05/07 17:59:23;;;;;;;4.57;2.00;;;;;;;;;;10479580;28;20193;-70
2021/05/07 18:04:24;;;;;;;3.57;1.80;;;;;;;;;;10480870;28;20225;-71
2021/05/07 18:09:26;;;;;;;4.57;2.00;;;;;;;;;;10473610;28;20607;-71
2021/05/07 18:14:29;;;;;;;5.33;1.80;;;;;;;;;;10489347;28;20220;-71
2021/05/07 18:19:48;;;;;;;6.40;2.17;;;;;;;;;;10480564;28;20293;-71
2021/05/07 18:24:49;;;;;;;4.93;2.30;;;;;;;;;;10499315;28;20224;-72
2021/05/07 18:29:52;;;;;;;4.30;1.90;;;;;;;;;;10478038;28;20196;-71
2021/05/07 18:34:53;;;;;;;4.30;2.00;;;;;;;;;;10479405;28;20221;-71
2021/05/07 18:39:55;;;;;;;4.70;2.30;;;;;;;;;;10492246;28;20685;-71
2021/05/07 18:44:58;;;;;;;5.63;2.40;;;;;;;;;;10498926;28;20212;-70
2021/05/07 18:49:59;;;;;;;5.00;2.50;;;;;;;;;;10487113;28;20185;-71
2021/05/07 18:55:02;;;;;;;11.17;4.67;;;;;;;;;;10492697;28;20549;-72
2021/05/07 19:00:06;;;;;;;6.43;2.50;;;;;;;;;;10489197;28;20228;-71
2021/05/07 19:05:08;;;;;;;5.27;2.40;;;;;;;;;;10494466;28;20285;-71
2021/05/07 19:10:11;;;;;;;8.80;3.00;;;;;;;;;;10496557;28;20676;-71
2021/05/07 19:15:13;;;;;;;6.03;2.90;;;;;;;;;;10491078;28;20220;-70
2021/05/07 19:20:16;;;;;;;8.70;2.63;;;;;;;;;;10526172;27;20228;-70
2021/05/07 19:25:17;;;;;;;7.07;2.87;;;;;;;;;;10490927;28;20215;-71
2021/05/07 19:30:22;;;;;;;6.90;2.90;;;;;;;;;;10487975;28;20196;-71
2021/05/07 19:35:24;;;;;;;7.10;3.20;;;;;;;;;;10483701;28;20212;-70
2021/05/07 19:40:26;;;;;;;7.33;3.53;;;;;;;;;;10489118;28;20208;-71
2021/05/07 19:45:29;;;;;;;7.63;3.57;;;;;;;;;;10490408;28;20223;-70
2021/05/07 19:50:30;;;;;;;9.10;3.83;;;;;;;;;;10482550;28;20272;-72
2021/05/07 19:55:32;;;;;;;8.40;3.70;;;;;;;;;;10468509;28;20223;-71
2021/05/07 20:00:35;;;;;;;7.20;3.30;;;;;;;;;;10458835;28;20334;-71
2021/05/07 20:05:37;;;;;;;9.77;4.50;;;;;;;;;;10441661;28;20223;-69
2021/05/07 20:10:38;;;;;;;9.07;4.60;;;;;;;;;;10436305;28;20661;-71
2021/05/07 20:15:41;;;;;;;8.83;4.30;;;;;;;;;;10439747;28;20251;-68
2021/05/07 20:20:42;;;;;;;9.40;4.30;;;;;;;;;;10448130;28;20204;-69
2021/05/07 20:25:44;;;;;;;8.87;4.33;;;;;;;;;;10441465;28;20527;-71
2021/05/07 20:30:46;;;;;;;8.20;3.63;;;;;;;;;;10446269;28;20196;-71
2021/05/07 20:35:48;;;;;;;12.33;6.50;;;;;;;;;;10438943;28;20235;-68
2021/05/07 20:40:50;;;;;;;9.37;4.20;;;;;;;;;;10437332;28;20329;-69
2021/05/07 20:45:52;;;;;;;9.07;4.10;;;;;;;;;;10433762;28;20227;-71
2021/05/07 20:50:54;;;;;;;9.40;4.07;;;;;;;;;;10475355;28;20389;-70
2021/05/07 20:55:56;;;;;;;8.20;3.70;;;;;;;;;;10436248;28;20331;-70
2021/05/07 21:00:59;;;;;;;7.50;3.60;;;;;;;;;;10438972;28;20558;-70
2021/05/07 21:06:03;;;;;;;8.40;4.20;;;;;;;;;;10440043;28;20246;-72
2021/05/07 21:11:04;;;;;;;10.23;4.30;;;;;;;;;;10438649;28;20276;-70
2021/05/07 21:16:07;;;;;;;8.97;3.57;;;;;;;;;;10454913;28;20383;-71
2021/05/07 21:21:08;;;;;;;8.37;4.23;;;;;;;;;;10455538;28;20870;-69
2021/05/07 21:26:11;;;;;;;8.03;4.00;;;;;;;;;;10437329;28;20217;-72
2021/05/07 21:31:13;;;;;;;9.03;4.47;;;;;;;;;;10443213;28;20345;-71
2021/05/07 21:36:15;;;;;;;10.47;3.63;;;;;;;;;;10438866;28;20232;-70
2021/05/07 21:41:17;;;;;;;8.70;4.33;;;;;;;;;;10439670;28;20231;-69
2021/05/07 21:46:19;;;;;;;7.80;4.23;;;;;;;;;;10436537;28;20866;-72
2021/05/07 21:51:21;;;;;;;10.20;4.70;;;;;;;;;;10437709;28;20188;-72
2021/05/07 21:56:23;;;;;;;10.30;4.70;;;;;;;;;;10437577;28;20239;-72
2021/05/07 22:01:27;;;;;;;10.57;5.03;;;;;;;;;;10443466;28;20216;-72
2021/05/07 22:06:28;;;;;;;12.17;4.97;;;;;;;;;;10441275;28;20556;-71
2021/05/07 22:11:30;;;;;;;12.00;5.43;;;;;;;;;;10452906;28;20188;-71
2021/05/07 22:16:33;;;;;;;10.70;5.23;;;;;;;;;;10489233;28;20230;-70
2021/05/07 22:21:43;;;;;;;12.77;5.23;;;;;;;;;;10488583;28;20346;-71
2021/05/07 22:26:45;;;;;;;11.37;5.27;;;;;;;;;;10487297;28;20687;-71
2021/05/07 22:31:47;;;;;;;10.63;5.17;;;;;;;;;;10487892;28;20216;-71
2021/05/07 22:36:49;;;;;;;9.93;4.67;;;;;;;;;;10485756;28;20278;-72
2021/05/07 22:41:51;;;;;;;9.13;4.40;;;;;;;;;;10487706;28;20258;-71
2021/05/07 22:47:03;;;;;;;12.07;4.97;;;;;;;;;;10476696;28;20270;-72
2021/05/07 22:52:05;;;;;;;10.37;5.23;;;;;;;;;;10492629;28;20241;-70
2021/05/07 22:57:06;;;;;;;12.53;5.30;;;;;;;;;;10484075;28;20201;-70
2021/05/07 23:02:09;;;;;;;9.63;4.90;;;;;;;;;;10491950;28;20298;-71
2021/05/07 23:07:11;;;;;;;9.40;4.60;;;;;;;;;;10482401;28;20216;-71
2021/05/07 23:12:13;;;;;;;10.63;5.37;;;;;;;;;;10489649;28;20213;-72
2021/05/07 23:17:15;;;;;;;10.07;5.00;;;;;;;;;;10482882;28;20200;-71
2021/05/07 23:22:17;;;;;;;11.57;5.37;;;;;;;;;;10483211;28;20247;-71
2021/05/07 23:27:19;;;;;;;9.43;4.87;;;;;;;;;;10482721;28;20196;-73
2021/05/07 23:32:21;;;;;;;9.63;4.70;;;;;;;;;;10483767;28;20724;-72
2021/05/07 23:37:24;;;;;;;9.67;4.67;;;;;;;;;;10482751;28;20199;-73
2021/05/07 23:42:25;;;;;;;8.70;4.43;;;;;;;;;;10485096;28;20268;-71
2021/05/07 23:47:29;;;;;;;11.00;4.80;;;;;;;;;;10484669;28;20690;-72
2021/05/07 23:52:31;;;;;;;10.60;4.80;;;;;;;;;;10495112;28;20209;-72
2021/05/07 23:57:33;;;;;;;9.27;4.40;;;;;;;;;;10491156;28;20510;-72
